sensor_id;sensor_type;location;lat;lon;timestamp;P1;durP1;ratioP1;P2;durP2;ratioP2
41139;SDS011;26881;48.784;9.192;2024-01-06T00:00:26;9.10;;;2.90;;
41139;SDS011;26881;48.784;9.192;2024-01-06T00:05:48;7.67;;;2.50;;
41139;SDS011;26881;48.784;9.192;2024-01-06T00:11:10;4.53;;;1.90;;
41139;SDS011;26881;48.784;9.192;2024-01-06T00:16:32;4.73;;;2.40;;
41139;SDS011;26881;48.784;9.192;2024-01-06T00:21:54;4.27;;;2.20;;
41139;SDS011;26881;48.784;9.192;2024-01-06T00:27:16;5.50;;;2.10;;
41139;SDS011;26881;48.784;9.192;2024-01-06T00:32:38;6.03;;;2.47;;
41139;SDS011;26881;48.784;9.192;2024-01-06T00:37:59;6.00;;;2.00;;
41139;SDS011;26881;48.784;9.192;2024-01-06T00:43:22;3.53;;;1.80;;
41139;SDS011;26881;48.784;9.192;2024-01-06T00:48:44;5.60;;;1.90;;
41139;SDS011;26881;48.784;9.192;2024-01-06T00:54:06;5.77;;;1.83;;
41139;SDS011;26881;48.784;9.192;2024-01-06T00:59:28;9.10;;;2.30;;
41139;SDS011;26881;48.784;9.192;2024-01-06T01:04:49;10.20;;;2.90;;
41139;SDS011;26881;48.784;9.192;2024-01-06T01:10:11;5.13;;;2.00;;
41139;SDS011;26881;48.784;9.192;2024-01-06T01:15:33;6.13;;;2.43;;
41139;SDS011;26881;48.784;9.192;2024-01-06T01:20:56;6.27;;;2.00;;
41139;SDS011;26881;48.784;9.192;2024-01-06T01:26:18;4.47;;;1.80;;
41139;SDS011;26881;48.784;9.192;2024-01-06T01:31:40;6.80;;;2.10;;
41139;SDS011;26881;48.784;9.192;2024-01-06T01:37:02;6.43;;;2.13;;
41139;SDS011;26881;48.784;9.192;2024-01-06T01:42:24;11.23;;;2.13;;
41139;SDS011;26881;48.784;9.192;2024-01-06T01:47:46;6.33;;;1.70;;
41139;SDS011;26881;48.784;9.192;2024-01-06T01:53:08;6.17;;;2.10;;
41139;SDS011;26881;48.784;9.192;2024-01-06T01:58:30;7.90;;;2.00;;
41139;SDS011;26881;48.784;9.192;2024-01-06T02:03:51;10.27;;;2.17;;
41139;SDS011;26881;48.784;9.192;2024-01-06T02:09:14;6.30;;;1.67;;
41139;SDS011;26881;48.784;9.192;2024-01-06T02:14:36;5.70;;;1.93;;
41139;SDS011;26881;48.784;9.192;2024-01-06T02:19:58;6.27;;;1.60;;
41139;SDS011;26881;48.784;9.192;2024-01-06T02:25:20;10.10;;;1.80;;
41139;SDS011;26881;48.784;9.192;2024-01-06T02:30:41;2.50;;;1.33;;
41139;SDS011;26881;48.784;9.192;2024-01-06T02:36:04;7.97;;;1.63;;
41139;SDS011;26881;48.784;9.192;2024-01-06T02:41:26;6.03;;;1.50;;
41139;SDS011;26881;48.784;9.192;2024-01-06T02:46:48;7.93;;;1.40;;
41139;SDS011;26881;48.784;9.192;2024-01-06T02:52:11;6.93;;;1.73;;
41139;SDS011;26881;48.784;9.192;2024-01-06T02:57:33;8.27;;;1.63;;
41139;SDS011;26881;48.784;9.192;2024-01-06T03:02:55;7.07;;;1.70;;
41139;SDS011;26881;48.784;9.192;2024-01-06T03:08:17;6.70;;;1.63;;
41139;SDS011;26881;48.784;9.192;2024-01-06T03:13:39;7.00;;;1.50;;
41139;SDS011;26881;48.784;9.192;2024-01-06T03:19:01;7.83;;;1.70;;
41139;SDS011;26881;48.784;9.192;2024-01-06T03:24:23;5.03;;;1.47;;
41139;SDS011;26881;48.784;9.192;2024-01-06T03:29:46;3.40;;;1.53;;
41139;SDS011;26881;48.784;9.192;2024-01-06T03:35:08;4.00;;;1.50;;
41139;SDS011;26881;48.784;9.192;2024-01-06T03:40:30;4.57;;;1.80;;
41139;SDS011;26881;48.784;9.192;2024-01-06T03:45:51;6.80;;;1.37;;
41139;SDS011;26881;48.784;9.192;2024-01-06T03:51:13;5.33;;;1.30;;
41139;SDS011;26881;48.784;9.192;2024-01-06T03:56:35;7.43;;;1.80;;
41139;SDS011;26881;48.784;9.192;2024-01-06T04:01:57;13.10;;;2.27;;
41139;SDS011;26881;48.784;9.192;2024-01-06T04:07:19;6.40;;;1.80;;
41139;SDS011;26881;48.784;9.192;2024-01-06T04:12:41;5.03;;;1.80;;
41139;SDS011;26881;48.784;9.192;2024-01-06T04:18:03;5.10;;;1.60;;
41139;SDS011;26881;48.784;9.192;2024-01-06T04:23:26;5.17;;;1.20;;
41139;SDS011;26881;48.784;9.192;2024-01-06T04:28:48;6.97;;;1.60;;
41139;SDS011;26881;48.784;9.192;2024-01-06T04:34:10;4.27;;;1.80;;
41139;SDS011;26881;48.784;9.192;2024-01-06T04:39:32;4.87;;;1.70;;
41139;SDS011;26881;48.784;9.192;2024-01-06T04:44:58;10.63;;;1.50;;
41139;SDS011;26881;48.784;9.192;2024-01-06T04:50:20;5.50;;;1.40;;
41139;SDS011;26881;48.784;9.192;2024-01-06T04:55:41;3.20;;;1.30;;
41139;SDS011;26881;48.784;9.192;2024-01-06T05:01:03;8.17;;;1.83;;
41139;SDS011;26881;48.784;9.192;2024-01-06T05:06:26;5.03;;;1.53;;
41139;SDS011;26881;48.784;9.192;2024-01-06T05:11:47;4.33;;;1.30;;
41139;SDS011;26881;48.784;9.192;2024-01-06T05:17:09;5.17;;;1.70;;
41139;SDS011;26881;48.784;9.192;2024-01-06T05:22:31;2.90;;;1.20;;
41139;SDS011;26881;48.784;9.192;2024-01-06T05:27:53;4.67;;;1.50;;
41139;SDS011;26881;48.784;9.192;2024-01-06T05:33:15;6.20;;;1.50;;
41139;SDS011;26881;48.784;9.192;2024-01-06T05:38:38;6.63;;;1.40;;
41139;SDS011;26881;48.784;9.192;2024-01-06T05:44:00;4.67;;;1.57;;
41139;SDS011;26881;48.784;9.192;2024-01-06T05:49:21;7.23;;;1.80;;
41139;SDS011;26881;48.784;9.192;2024-01-06T05:54:43;4.53;;;1.50;;
41139;SDS011;26881;48.784;9.192;2024-01-06T06:00:09;4.43;;;1.70;;
41139;SDS011;26881;48.784;9.192;2024-01-06T06:05:32;5.60;;;1.60;;
41139;SDS011;26881;48.784;9.192;2024-01-06T06:10:54;4.80;;;1.50;;
41139;SDS011;26881;48.784;9.192;2024-01-06T06:16:32;3.87;;;1.50;;
41139;SDS011;26881;48.784;9.192;2024-01-06T06:21:54;3.00;;;1.63;;
41139;SDS011;26881;48.784;9.192;2024-01-06T06:27:16;5.80;;;1.43;;
41139;SDS011;26881;48.784;9.192;2024-01-06T06:32:37;3.07;;;1.40;;
41139;SDS011;26881;48.784;9.192;2024-01-06T06:37:59;3.20;;;1.63;;
41139;SDS011;26881;48.784;9.192;2024-01-06T06:43:21;5.73;;;1.97;;
41139;SDS011;26881;48.784;9.192;2024-01-06T06:48:43;2.97;;;1.70;;
41139;SDS011;26881;48.784;9.192;2024-01-06T06:54:05;3.60;;;1.80;;
41139;SDS011;26881;48.784;9.192;2024-01-06T06:59:28;5.47;;;1.87;;
41139;SDS011;26881;48.784;9.192;2024-01-06T07:04:50;6.53;;;2.03;;
41139;SDS011;26881;48.784;9.192;2024-01-06T07:10:12;4.43;;;2.60;;
41139;SDS011;26881;48.784;9.192;2024-01-06T07:15:34;5.20;;;2.30;;
41139;SDS011;26881;48.784;9.192;2024-01-06T07:20:56;4.77;;;1.80;;
41139;SDS011;26881;48.784;9.192;2024-01-06T07:26:18;5.07;;;2.07;;
41139;SDS011;26881;48.784;9.192;2024-01-06T07:31:40;6.20;;;2.47;;
41139;SDS011;26881;48.784;9.192;2024-01-06T07:37:02;4.40;;;2.00;;
41139;SDS011;26881;48.784;9.192;2024-01-06T07:42:24;7.70;;;1.80;;
41139;SDS011;26881;48.784;9.192;2024-01-06T07:47:46;4.93;;;1.90;;
41139;SDS011;26881;48.784;9.192;2024-01-06T07:53:08;5.17;;;1.60;;
41139;SDS011;26881;48.784;9.192;2024-01-06T07:58:30;4.70;;;2.17;;
41139;SDS011;26881;48.784;9.192;2024-01-06T08:03:52;4.37;;;1.90;;
41139;SDS011;26881;48.784;9.192;2024-01-06T08:09:14;8.30;;;3.83;;
41139;SDS011;26881;48.784;9.192;2024-01-06T08:14:36;8.33;;;3.30;;
41139;SDS011;26881;48.784;9.192;2024-01-06T08:19:58;3.83;;;1.87;;
41139;SDS011;26881;48.784;9.192;2024-01-06T08:25:20;6.93;;;2.47;;
41139;SDS011;26881;48.784;9.192;2024-01-06T08:30:41;5.10;;;2.07;;
41139;SDS011;26881;48.784;9.192;2024-01-06T08:36:05;10.10;;;3.83;;
41139;SDS011;26881;48.784;9.192;2024-01-06T08:41:27;4.40;;;1.83;;
41139;SDS011;26881;48.784;9.192;2024-01-06T08:46:49;5.33;;;1.83;;
41139;SDS011;26881;48.784;9.192;2024-01-06T08:52:11;5.87;;;3.03;;
41139;SDS011;26881;48.784;9.192;2024-01-06T08:57:33;5.33;;;2.10;;
41139;SDS011;26881;48.784;9.192;2024-01-06T09:02:55;4.27;;;1.90;;
41139;SDS011;26881;48.784;9.192;2024-01-06T09:08:17;3.47;;;1.93;;
41139;SDS011;26881;48.784;9.192;2024-01-06T09:13:39;2.17;;;1.47;;
41139;SDS011;26881;48.784;9.192;2024-01-06T09:19:01;3.87;;;2.00;;
41139;SDS011;26881;48.784;9.192;2024-01-06T09:24:23;3.07;;;2.20;;
41139;SDS011;26881;48.784;9.192;2024-01-06T09:29:45;2.13;;;1.40;;
41139;SDS011;26881;48.784;9.192;2024-01-06T09:35:07;1.10;;;1.00;;
41139;SDS011;26881;48.784;9.192;2024-01-06T09:40:30;1.40;;;1.30;;
41139;SDS011;26881;48.784;9.192;2024-01-06T09:45:56;1.93;;;1.20;;
41139;SDS011;26881;48.784;9.192;2024-01-06T09:51:23;2.80;;;1.20;;
41139;SDS011;26881;48.784;9.192;2024-01-06T09:56:47;2.17;;;1.17;;
41139;SDS011;26881;48.784;9.192;2024-01-06T10:02:11;2.93;;;1.13;;
41139;SDS011;26881;48.784;9.192;2024-01-06T10:07:36;2.53;;;1.30;;
41139;SDS011;26881;48.784;9.192;2024-01-06T10:12:58;2.00;;;1.27;;
41139;SDS011;26881;48.784;9.192;2024-01-06T10:18:19;2.57;;;1.10;;
41139;SDS011;26881;48.784;9.192;2024-01-06T10:23:42;3.67;;;1.30;;
41139;SDS011;26881;48.784;9.192;2024-01-06T10:29:04;3.60;;;1.47;;
41139;SDS011;26881;48.784;9.192;2024-01-06T10:34:26;1.80;;;1.40;;
41139;SDS011;26881;48.784;9.192;2024-01-06T10:39:49;3.77;;;1.40;;
41139;SDS011;26881;48.784;9.192;2024-01-06T10:45:28;1.67;;;1.13;;
41139;SDS011;26881;48.784;9.192;2024-01-06T10:50:51;1.67;;;1.37;;
41139;SDS011;26881;48.784;9.192;2024-01-06T10:56:14;1.27;;;1.17;;
41139;SDS011;26881;48.784;9.192;2024-01-06T11:01:37;9.10;;;2.53;;
41139;SDS011;26881;48.784;9.192;2024-01-06T11:07:00;7.17;;;1.80;;
41139;SDS011;26881;48.784;9.192;2024-01-06T11:12:22;2.35;;;1.58;;
41139;SDS011;26881;48.784;9.192;2024-01-06T11:17:51;2.10;;;1.30;;
41139;SDS011;26881;48.784;9.192;2024-01-06T11:23:20;1.27;;;1.17;;
41139;SDS011;26881;48.784;9.192;2024-01-06T11:28:43;1.53;;;1.43;;
41139;SDS011;26881;48.784;9.192;2024-01-06T11:34:14;1.60;;;1.50;;
41139;SDS011;26881;48.784;9.192;2024-01-06T11:39:40;1.70;;;1.60;;
41139;SDS011;26881;48.784;9.192;2024-01-06T11:45:03;2.00;;;1.70;;
41139;SDS011;26881;48.784;9.192;2024-01-06T11:50:27;2.47;;;1.80;;
41139;SDS011;26881;48.784;9.192;2024-01-06T11:55:49;3.83;;;2.30;;
41139;SDS011;26881;48.784;9.192;2024-01-06T12:01:11;2.80;;;2.50;;
41139;SDS011;26881;48.784;9.192;2024-01-06T12:06:33;2.50;;;2.30;;
41139;SDS011;26881;48.784;9.192;2024-01-06T12:12:03;3.37;;;2.60;;
41139;SDS011;26881;48.784;9.192;2024-01-06T12:17:30;3.37;;;2.67;;
41139;SDS011;26881;48.784;9.192;2024-01-06T12:22:53;3.57;;;2.20;;
41139;SDS011;26881;48.784;9.192;2024-01-06T12:28:15;2.60;;;2.40;;
41139;SDS011;26881;48.784;9.192;2024-01-06T12:33:37;3.07;;;2.70;;
41139;SDS011;26881;48.784;9.192;2024-01-06T12:39:02;4.10;;;3.03;;
41139;SDS011;26881;48.784;9.192;2024-01-06T12:44:25;3.37;;;2.93;;
41139;SDS011;26881;48.784;9.192;2024-01-06T12:49:46;2.77;;;2.57;;
41139;SDS011;26881;48.784;9.192;2024-01-06T12:55:08;5.00;;;2.80;;
41139;SDS011;26881;48.784;9.192;2024-01-06T13:00:31;3.60;;;3.07;;
41139;SDS011;26881;48.784;9.192;2024-01-06T13:05:57;4.03;;;3.10;;
41139;SDS011;26881;48.784;9.192;2024-01-06T13:11:19;4.60;;;3.80;;
41139;SDS011;26881;48.784;9.192;2024-01-06T13:16:42;3.53;;;3.23;;
41139;SDS011;26881;48.784;9.192;2024-01-06T13:22:04;3.20;;;2.90;;
41139;SDS011;26881;48.784;9.192;2024-01-06T13:27:26;4.47;;;3.57;;
41139;SDS011;26881;48.784;9.192;2024-01-06T13:32:51;5.90;;;4.60;;
41139;SDS011;26881;48.784;9.192;2024-01-06T13:38:16;4.60;;;4.00;;
41139;SDS011;26881;48.784;9.192;2024-01-06T13:43:38;6.30;;;4.60;;
41139;SDS011;26881;48.784;9.192;2024-01-06T13:48:59;4.43;;;4.03;;
41139;SDS011;26881;48.784;9.192;2024-01-06T13:54:21;5.80;;;5.17;;
41139;SDS011;26881;48.784;9.192;2024-01-06T13:59:43;7.13;;;5.87;;
41139;SDS011;26881;48.784;9.192;2024-01-06T14:05:06;5.77;;;4.87;;
41139;SDS011;26881;48.784;9.192;2024-01-06T14:10:30;5.63;;;5.13;;
41139;SDS011;26881;48.784;9.192;2024-01-06T14:15:53;6.87;;;5.10;;
41139;SDS011;26881;48.784;9.192;2024-01-06T14:21:15;5.63;;;5.10;;
41139;SDS011;26881;48.784;9.192;2024-01-06T14:26:40;6.10;;;5.10;;
41139;SDS011;26881;48.784;9.192;2024-01-06T14:32:04;5.57;;;5.07;;
41139;SDS011;26881;48.784;9.192;2024-01-06T14:37:26;5.50;;;4.90;;
41139;SDS011;26881;48.784;9.192;2024-01-06T14:42:48;7.43;;;5.87;;
41139;SDS011;26881;48.784;9.192;2024-01-06T14:48:10;7.40;;;5.83;;
41139;SDS011;26881;48.784;9.192;2024-01-06T14:53:32;7.90;;;7.00;;
41139;SDS011;26881;48.784;9.192;2024-01-06T14:58:56;6.30;;;5.70;;
41139;SDS011;26881;48.784;9.192;2024-01-06T15:04:18;6.40;;;5.80;;
41139;SDS011;26881;48.784;9.192;2024-01-06T15:09:41;6.60;;;5.63;;
41139;SDS011;26881;48.784;9.192;2024-01-06T15:15:04;7.03;;;6.23;;
41139;SDS011;26881;48.784;9.192;2024-01-06T15:20:27;7.70;;;6.90;;
41139;SDS011;26881;48.784;9.192;2024-01-06T15:25:49;8.97;;;6.77;;
41139;SDS011;26881;48.784;9.192;2024-01-06T15:31:11;9.67;;;7.37;;
41139;SDS011;26881;48.784;9.192;2024-01-06T15:36:33;8.53;;;7.73;;
41139;SDS011;26881;48.784;9.192;2024-01-06T15:41:55;10.50;;;7.93;;
41139;SDS011;26881;48.784;9.192;2024-01-06T15:47:17;10.90;;;8.57;;
41139;SDS011;26881;48.784;9.192;2024-01-06T15:52:39;11.67;;;9.40;;
41139;SDS011;26881;48.784;9.192;2024-01-06T15:58:01;15.90;;;10.53;;
41139;SDS011;26881;48.784;9.192;2024-01-06T16:03:23;10.73;;;9.07;;
41139;SDS011;26881;48.784;9.192;2024-01-06T16:08:45;12.27;;;9.97;;
41139;SDS011;26881;48.784;9.192;2024-01-06T16:14:07;13.07;;;10.97;;
41139;SDS011;26881;48.784;9.192;2024-01-06T16:19:29;15.27;;;12.03;;
41139;SDS011;26881;48.784;9.192;2024-01-06T16:24:51;14.63;;;11.27;;
41139;SDS011;26881;48.784;9.192;2024-01-06T16:30:13;14.07;;;11.23;;
41139;SDS011;26881;48.784;9.192;2024-01-06T16:35:35;16.00;;;12.07;;
41139;SDS011;26881;48.784;9.192;2024-01-06T16:40:59;17.10;;;12.80;;
41139;SDS011;26881;48.784;9.192;2024-01-06T16:46:21;15.33;;;12.00;;
41139;SDS011;26881;48.784;9.192;2024-01-06T16:51:42;15.50;;;12.13;;
41139;SDS011;26881;48.784;9.192;2024-01-06T16:57:04;16.10;;;12.43;;
41139;SDS011;26881;48.784;9.192;2024-01-06T17:02:26;15.37;;;12.23;;
41139;SDS011;26881;48.784;9.192;2024-01-06T17:07:49;18.30;;;13.50;;
41139;SDS011;26881;48.784;9.192;2024-01-06T17:13:11;15.73;;;13.33;;
41139;SDS011;26881;48.784;9.192;2024-01-06T17:18:33;16.27;;;14.37;;
41139;SDS011;26881;48.784;9.192;2024-01-06T17:23:55;17.70;;;14.50;;
41139;SDS011;26881;48.784;9.192;2024-01-06T17:29:17;21.93;;;15.43;;
41139;SDS011;26881;48.784;9.192;2024-01-06T17:34:39;17.00;;;14.43;;
41139;SDS011;26881;48.784;9.192;2024-01-06T17:40:01;17.07;;;14.17;;
41139;SDS011;26881;48.784;9.192;2024-01-06T17:45:23;17.83;;;13.40;;
41139;SDS011;26881;48.784;9.192;2024-01-06T17:50:46;18.27;;;13.93;;
41139;SDS011;26881;48.784;9.192;2024-01-06T17:56:08;19.13;;;13.80;;
41139;SDS011;26881;48.784;9.192;2024-01-06T18:01:30;19.43;;;13.10;;
41139;SDS011;26881;48.784;9.192;2024-01-06T18:06:52;17.77;;;14.00;;
41139;SDS011;26881;48.784;9.192;2024-01-06T18:12:14;20.47;;;14.77;;
41139;SDS011;26881;48.784;9.192;2024-01-06T18:17:36;19.43;;;14.57;;
41139;SDS011;26881;48.784;9.192;2024-01-06T18:23:00;19.30;;;15.60;;
41139;SDS011;26881;48.784;9.192;2024-01-06T18:28:22;20.23;;;15.47;;
41139;SDS011;26881;48.784;9.192;2024-01-06T18:33:45;20.30;;;16.07;;
41139;SDS011;26881;48.784;9.192;2024-01-06T18:39:07;23.23;;;17.20;;
41139;SDS011;26881;48.784;9.192;2024-01-06T18:44:29;21.90;;;17.27;;
41139;SDS011;26881;48.784;9.192;2024-01-06T18:49:51;25.97;;;18.03;;
41139;SDS011;26881;48.784;9.192;2024-01-06T18:55:13;22.20;;;17.40;;
41139;SDS011;26881;48.784;9.192;2024-01-06T19:00:36;23.47;;;17.50;;
41139;SDS011;26881;48.784;9.192;2024-01-06T19:05:58;24.87;;;18.07;;
41139;SDS011;26881;48.784;9.192;2024-01-06T19:11:20;25.60;;;18.33;;
41139;SDS011;26881;48.784;9.192;2024-01-06T19:16:42;24.03;;;19.63;;
41139;SDS011;26881;48.784;9.192;2024-01-06T19:22:05;26.87;;;19.77;;
41139;SDS011;26881;48.784;9.192;2024-01-06T19:27:27;23.63;;;18.67;;
41139;SDS011;26881;48.784;9.192;2024-01-06T19:32:50;21.97;;;17.93;;
41139;SDS011;26881;48.784;9.192;2024-01-06T19:38:13;22.53;;;17.97;;
41139;SDS011;26881;48.784;9.192;2024-01-06T19:43:41;26.77;;;18.73;;
41139;SDS011;26881;48.784;9.192;2024-01-06T19:49:02;26.90;;;19.77;;
41139;SDS011;26881;48.784;9.192;2024-01-06T19:54:25;27.77;;;19.13;;
41139;SDS011;26881;48.784;9.192;2024-01-06T19:59:47;26.43;;;19.63;;
41139;SDS011;26881;48.784;9.192;2024-01-06T20:05:11;24.13;;;18.40;;
41139;SDS011;26881;48.784;9.192;2024-01-06T20:10:33;25.20;;;18.27;;
41139;SDS011;26881;48.784;9.192;2024-01-06T20:15:58;22.50;;;18.03;;
41139;SDS011;26881;48.784;9.192;2024-01-06T20:21:21;22.50;;;17.30;;
41139;SDS011;26881;48.784;9.192;2024-01-06T20:26:43;23.63;;;18.53;;
41139;SDS011;26881;48.784;9.192;2024-01-06T20:32:05;25.37;;;19.37;;
41139;SDS011;26881;48.784;9.192;2024-01-06T20:37:28;23.07;;;17.40;;
41139;SDS011;26881;48.784;9.192;2024-01-06T20:42:49;25.20;;;18.30;;
41139;SDS011;26881;48.784;9.192;2024-01-06T20:48:11;21.90;;;17.97;;
41139;SDS011;26881;48.784;9.192;2024-01-06T20:53:33;22.73;;;18.80;;
41139;SDS011;26881;48.784;9.192;2024-01-06T20:58:57;25.37;;;18.10;;
41139;SDS011;26881;48.784;9.192;2024-01-06T21:04:19;22.13;;;19.50;;
41139;SDS011;26881;48.784;9.192;2024-01-06T21:09:41;24.67;;;19.80;;
41139;SDS011;26881;48.784;9.192;2024-01-06T21:15:03;26.03;;;20.33;;
41139;SDS011;26881;48.784;9.192;2024-01-06T21:20:25;26.27;;;19.53;;
41139;SDS011;26881;48.784;9.192;2024-01-06T21:25:47;27.40;;;21.03;;
41139;SDS011;26881;48.784;9.192;2024-01-06T21:31:09;30.07;;;21.17;;
41139;SDS011;26881;48.784;9.192;2024-01-06T21:36:31;29.73;;;21.70;;
41139;SDS011;26881;48.784;9.192;2024-01-06T21:41:53;26.70;;;20.93;;
41139;SDS011;26881;48.784;9.192;2024-01-06T21:47:15;31.27;;;21.90;;
41139;SDS011;26881;48.784;9.192;2024-01-06T21:52:37;30.57;;;21.67;;
41139;SDS011;26881;48.784;9.192;2024-01-06T21:58:01;28.63;;;20.87;;
41139;SDS011;26881;48.784;9.192;2024-01-06T22:03:24;26.63;;;21.30;;
41139;SDS011;26881;48.784;9.192;2024-01-06T22:08:46;28.63;;;20.70;;
41139;SDS011;26881;48.784;9.192;2024-01-06T22:14:08;24.73;;;19.53;;
41139;SDS011;26881;48.784;9.192;2024-01-06T22:19:30;29.20;;;22.27;;
41139;SDS011;26881;48.784;9.192;2024-01-06T22:24:52;27.83;;;21.60;;
41139;SDS011;26881;48.784;9.192;2024-01-06T22:30:14;29.20;;;21.83;;
41139;SDS011;26881;48.784;9.192;2024-01-06T22:35:38;29.23;;;21.63;;
41139;SDS011;26881;48.784;9.192;2024-01-06T22:41:00;29.23;;;21.60;;
41139;SDS011;26881;48.784;9.192;2024-01-06T22:46:22;32.23;;;23.23;;
41139;SDS011;26881;48.784;9.192;2024-01-06T22:51:47;30.50;;;22.77;;
41139;SDS011;26881;48.784;9.192;2024-01-06T22:57:09;32.13;;;22.47;;
41139;SDS011;26881;48.784;9.192;2024-01-06T23:02:31;30.93;;;22.83;;
41139;SDS011;26881;48.784;9.192;2024-01-06T23:07:53;31.87;;;23.00;;
41139;SDS011;26881;48.784;9.192;2024-01-06T23:13:15;30.13;;;23.13;;
41139;SDS011;26881;48.784;9.192;2024-01-06T23:18:38;32.50;;;22.77;;
41139;SDS011;26881;48.784;9.192;2024-01-06T23:24:00;29.80;;;22.93;;
41139;SDS011;26881;48.784;9.192;2024-01-06T23:29:22;31.63;;;23.33;;
41139;SDS011;26881;48.784;9.192;2024-01-06T23:34:44;26.90;;;21.83;;
41139;SDS011;26881;48.784;9.192;2024-01-06T23:40:07;30.77;;;22.63;;
41139;SDS011;26881;48.784;9.192;2024-01-06T23:45:29;27.73;;;22.37;;
41139;SDS011;26881;48.784;9.192;2024-01-06T23:50:51;29.90;;;21.87;;
41139;SDS011;26881;48.784;9.192;2024-01-06T23:56:13;27.33;;;20.60;;
